createdAt,value
2024-04-18T00:01:37.385Z,4.05
2024-04-18T00:06:41.544Z,4.09
2024-04-18T00:11:47.669Z,4.12
2024-04-18T00:16:49.917Z,4.15
2024-04-18T00:21:54.065Z,4.19
2024-04-18T00:26:58.266Z,4.20
2024-04-18T00:32:02.440Z,4.22
2024-04-18T00:37:06.526Z,4.27
2024-04-18T00:42:10.709Z,4.30
2024-04-18T00:47:12.985Z,4.32
2024-04-18T00:52:17.215Z,4.33
2024-04-18T00:57:21.409Z,4.33
2024-04-18T01:02:25.482Z,4.33
2024-04-18T01:07:29.645Z,4.35
2024-04-18T01:12:33.810Z,4.40
2024-04-18T01:17:38.032Z,4.42
2024-04-18T01:22:42.103Z,4.43
2024-04-18T01:27:46.284Z,4.48
2024-04-18T01:32:50.526Z,4.45
2024-04-18T01:37:54.574Z,4.50
2024-04-18T01:42:58.764Z,4.52
2024-04-18T01:48:03.124Z,4.52
2024-04-18T01:53:07.080Z,4.52
2024-04-18T01:58:11.238Z,4.57
2024-04-18T02:03:15.479Z,4.55
2024-04-18T02:08:19.563Z,4.52
2024-04-18T02:13:23.727Z,4.47
2024-04-18T02:18:28.010Z,4.47
2024-04-18T02:23:32.060Z,4.49
2024-04-18T02:28:36.234Z,4.43
2024-04-18T02:33:40.409Z,4.48
2024-04-18T02:38:44.538Z,4.50
2024-04-18T02:43:48.695Z,4.53
2024-04-18T02:48:53.147Z,-0.00
2024-04-18T02:53:57.295Z,-0.00
2024-04-18T02:59:01.570Z,-0.00
2024-04-18T03:04:05.921Z,-0.00
2024-04-18T03:09:10.060Z,4.40
2024-04-18T03:14:14.212Z,4.39
2024-04-18T03:19:18.389Z,4.36
2024-04-18T03:24:22.564Z,4.36
2024-04-18T03:29:26.645Z,4.33
2024-04-18T03:34:30.860Z,4.33
2024-04-18T03:39:35.073Z,4.30
2024-04-18T03:44:39.167Z,4.29
2024-04-18T03:49:43.326Z,4.29
2024-04-18T03:55:00.143Z,4.29
2024-04-18T03:59:51.646Z,4.27
2024-04-18T04:04:55.836Z,4.29
2024-04-18T04:09:59.991Z,4.30
2024-04-18T04:15:04.178Z,4.31
2024-04-18T04:20:08.327Z,4.31
2024-04-18T04:25:12.465Z,4.34
2024-04-18T04:30:16.675Z,4.29
2024-04-18T04:35:20.801Z,4.30
2024-04-18T04:40:24.952Z,4.31
2024-04-18T04:45:29.159Z,4.31
2024-04-18T04:50:33.277Z,4.30
2024-04-18T04:55:37.484Z,4.29
2024-04-18T05:00:41.598Z,4.30
2024-04-18T05:05:45.757Z,4.29
2024-04-18T05:10:49.949Z,4.29
2024-04-18T05:15:54.152Z,4.29
2024-04-18T05:20:58.265Z,4.31
2024-04-18T05:26:02.444Z,4.38
2024-04-18T05:31:06.657Z,4.42
2024-04-18T05:36:10.744Z,4.42
2024-04-18T05:41:14.928Z,4.49
2024-04-18T05:46:19.047Z,4.55
2024-04-18T05:51:23.278Z,4.59
2024-04-18T05:56:27.370Z,4.67
2024-04-18T06:01:31.624Z,4.68
2024-04-18T06:06:35.802Z,4.75
2024-04-18T06:11:39.962Z,4.79
2024-04-18T06:16:42.269Z,4.75
2024-04-18T06:21:46.365Z,4.80
2024-04-18T06:26:50.465Z,4.87
2024-04-18T06:31:54.659Z,4.88
2024-04-18T06:36:58.876Z,4.84
2024-04-18T06:42:03.005Z,4.92
2024-04-18T06:47:05.270Z,5.09
2024-04-18T06:52:09.413Z,5.13
2024-04-18T06:57:13.549Z,5.17
2024-04-18T07:02:17.755Z,5.17
2024-04-18T07:07:21.937Z,5.18
2024-04-18T07:12:26.089Z,5.33
2024-04-18T07:17:30.336Z,5.34
2024-04-18T07:22:34.398Z,5.49
2024-04-18T07:27:38.568Z,5.55
2024-04-18T07:32:42.788Z,5.61
2024-04-18T07:37:46.926Z,5.81
2024-04-18T07:42:51.059Z,6.02
2024-04-18T07:47:55.347Z,6.24
2024-04-18T07:53:04.199Z,6.55
2024-04-18T07:58:04.364Z,6.70
2024-04-18T08:03:09.178Z,6.81
2024-04-18T08:08:14.161Z,6.63
2024-04-18T08:13:19.829Z,6.87
2024-04-18T08:18:20.190Z,7.25
2024-04-18T08:23:24.364Z,7.55
2024-04-18T08:28:28.501Z,7.76
2024-04-18T08:33:32.686Z,7.81
2024-04-18T08:38:36.842Z,8.10
2024-04-18T08:48:45.240Z,8.54
2024-04-18T08:53:49.298Z,8.68
2024-04-18T08:58:53.522Z,8.28
2024-04-18T09:03:57.654Z,8.30
2024-04-18T09:09:01.837Z,8.17
2024-04-18T09:14:05.986Z,8.01
2024-04-18T09:19:11.808Z,7.78
2024-04-18T09:24:14.381Z,7.96
2024-04-18T09:29:18.427Z,8.59
2024-04-18T09:34:22.739Z,9.06
2024-04-18T09:39:26.872Z,8.97
2024-04-18T09:44:30.936Z,8.80
2024-04-18T09:49:35.135Z,9.21
2024-04-18T09:54:39.316Z,9.25
2024-04-18T09:59:43.421Z,9.92
2024-04-18T10:04:47.601Z,9.92
2024-04-18T10:09:51.788Z,9.76
2024-04-18T10:14:55.921Z,9.47
2024-04-18T10:20:00.117Z,9.60
2024-04-18T10:25:04.241Z,9.85
2024-04-18T10:30:08.431Z,9.61
2024-04-18T10:35:12.587Z,9.85
2024-04-18T10:40:16.728Z,10.19
2024-04-18T10:45:20.891Z,9.88
2024-04-18T10:50:25.061Z,10.32
2024-04-18T10:55:29.220Z,10.65
2024-04-18T11:00:33.415Z,10.78
2024-04-18T11:05:37.565Z,10.71
2024-04-18T11:10:41.707Z,10.44
2024-04-18T11:15:45.899Z,10.20
2024-04-18T11:20:50.013Z,10.17
2024-04-18T11:25:54.168Z,10.62
2024-04-18T11:30:58.338Z,10.90
2024-04-18T11:36:02.540Z,11.14
2024-04-18T11:41:06.686Z,11.20
2024-04-18T11:46:10.833Z,11.44
2024-04-18T11:51:14.988Z,11.90
2024-04-18T11:56:19.163Z,12.17
2024-04-18T12:01:23.290Z,11.89
2024-04-18T12:06:27.535Z,12.05
2024-04-18T12:11:31.852Z,11.81
2024-04-18T12:16:33.961Z,11.62
2024-04-18T12:21:38.124Z,12.17
2024-04-18T12:26:43.291Z,12.34
2024-04-18T12:31:46.417Z,12.25
2024-04-18T12:36:50.508Z,12.02
2024-04-18T12:41:54.687Z,12.39
2024-04-18T12:46:58.905Z,11.87
2024-04-18T12:52:03.091Z,11.67
2024-04-18T12:57:07.253Z,11.68
2024-04-18T13:02:11.372Z,12.14
2024-04-18T13:07:15.540Z,11.91
2024-04-18T13:12:19.699Z,11.48
2024-04-18T13:17:23.900Z,11.63
2024-04-18T13:22:27.987Z,11.97
2024-04-18T13:27:32.319Z,12.58
2024-04-18T13:32:36.423Z,12.53
2024-04-18T13:37:40.506Z,12.70
2024-04-18T13:42:44.642Z,12.54
2024-04-18T13:47:49.069Z,12.32
2024-04-18T13:52:52.945Z,11.91
2024-04-18T13:57:59.475Z,11.99
2024-04-18T14:03:01.376Z,12.38
2024-04-18T14:08:05.432Z,11.98
2024-04-18T14:13:09.604Z,11.82
2024-04-18T14:18:13.761Z,11.88
2024-04-18T14:23:17.936Z,11.90
2024-04-18T14:28:27.777Z,11.93
2024-04-18T14:33:26.396Z,11.64
2024-04-18T14:38:30.391Z,11.98
2024-04-18T14:43:34.589Z,12.78
2024-04-18T14:48:38.746Z,12.48
2024-04-18T14:53:42.880Z,12.35
2024-04-18T14:58:47.007Z,11.95
2024-04-18T15:03:51.323Z,11.83
2024-04-18T15:08:55.370Z,11.81
2024-04-18T15:13:59.539Z,11.68
2024-04-18T15:19:03.914Z,11.46
2024-04-18T15:24:07.859Z,11.49
2024-04-18T15:29:12.012Z,11.63
2024-04-18T15:34:16.204Z,12.00
2024-04-18T15:39:20.343Z,12.38
2024-04-18T15:44:24.505Z,12.46
2024-04-18T15:49:28.677Z,12.46
2024-04-18T15:54:32.874Z,12.49
2024-04-18T15:59:36.953Z,11.88
2024-04-18T16:04:41.179Z,11.46
2024-04-18T16:09:45.343Z,11.99
2024-04-18T16:14:49.478Z,13.91
2024-04-18T16:19:53.615Z,13.33
2024-04-18T16:24:57.859Z,11.97
2024-04-18T16:30:02.019Z,11.53
2024-04-18T16:35:06.088Z,11.25
2024-04-18T16:40:10.276Z,11.15
2024-04-18T16:45:14.449Z,10.95
2024-04-18T16:50:18.593Z,10.84
2024-04-18T16:55:22.754Z,10.79
2024-04-18T17:00:26.953Z,10.69
2024-04-18T17:05:31.077Z,10.66
2024-04-18T17:10:35.225Z,10.65
2024-04-18T17:15:39.470Z,10.46
2024-04-18T17:20:43.596Z,10.33
2024-04-18T17:25:47.751Z,10.21
2024-04-18T17:30:51.885Z,10.12
2024-04-18T17:35:56.029Z,9.97
2024-04-18T17:41:02.551Z,9.85
2024-04-18T17:46:02.500Z,9.78
2024-04-18T17:51:06.648Z,9.69
2024-04-18T17:56:10.812Z,9.62
2024-04-18T18:01:14.966Z,9.58
2024-04-18T18:06:19.253Z,9.48
2024-04-18T18:11:23.458Z,9.35
2024-04-18T18:16:27.436Z,9.28
2024-04-18T18:21:31.669Z,9.19
2024-04-18T18:26:35.759Z,9.12
2024-04-18T18:31:39.962Z,9.06
2024-04-18T18:36:44.137Z,8.99
2024-04-18T18:41:48.249Z,8.90
2024-04-18T18:46:52.420Z,8.80
2024-04-18T18:51:56.578Z,8.72
2024-04-18T18:57:00.761Z,8.67
2024-04-18T19:02:04.917Z,8.58
2024-04-18T19:07:09.049Z,8.51
2024-04-18T19:12:13.283Z,8.43
2024-04-18T19:17:18.027Z,8.38
2024-04-18T19:22:21.541Z,8.36
2024-04-18T19:27:25.800Z,8.32
2024-04-18T19:32:30.049Z,8.28
2024-04-18T19:37:34.061Z,8.19
2024-04-18T19:42:38.227Z,8.13
2024-04-18T19:47:42.431Z,8.07
2024-04-18T19:52:46.536Z,8.06
2024-04-18T19:57:50.746Z,8.00
2024-04-18T20:02:54.841Z,7.91
2024-04-18T20:07:58.976Z,7.80
2024-04-18T20:13:03.173Z,7.83
2024-04-18T20:18:07.382Z,7.77
2024-04-18T20:23:11.501Z,7.74
2024-04-18T20:28:15.635Z,7.64
2024-04-18T20:33:19.890Z,7.58
2024-04-18T20:38:23.987Z,7.50
2024-04-18T20:43:28.159Z,7.45
2024-04-18T20:48:32.405Z,7.42
2024-04-18T20:53:36.454Z,7.36
2024-04-18T20:58:40.648Z,7.28
2024-04-18T21:03:44.892Z,7.22
2024-04-18T21:08:48.954Z,7.22
2024-04-18T21:13:53.113Z,7.15
2024-04-18T21:18:57.343Z,7.12
2024-04-18T21:24:01.456Z,7.07
2024-04-18T21:29:05.580Z,7.02
2024-04-18T21:34:09.799Z,6.99
2024-04-18T21:39:13.940Z,6.97
2024-04-18T21:44:18.060Z,6.94
2024-04-18T21:49:22.342Z,6.91
2024-04-18T21:54:26.454Z,6.86
2024-04-18T21:59:30.571Z,6.83
2024-04-18T22:04:34.751Z,6.78
2024-04-18T22:09:38.967Z,6.77
2024-04-18T22:14:43.061Z,6.69
2024-04-18T22:19:47.277Z,6.63
2024-04-18T22:24:51.386Z,6.59
2024-04-18T22:29:55.576Z,6.55
2024-04-18T22:34:59.757Z,6.55
2024-04-18T22:40:03.886Z,6.53
2024-04-18T22:45:08.128Z,6.53
2024-04-18T22:50:12.176Z,6.51
2024-04-18T22:55:16.456Z,6.52
2024-04-18T23:00:20.709Z,6.51
2024-04-18T23:05:24.697Z,6.50
2024-04-18T23:10:28.869Z,6.51
2024-04-18T23:15:31.162Z,6.49
2024-04-18T23:20:35.268Z,6.47
2024-04-18T23:25:39.479Z,6.47
2024-04-18T23:30:43.668Z,6.50
2024-04-18T23:35:47.782Z,6.52
2024-04-18T23:40:51.941Z,6.54
2024-04-18T23:45:56.104Z,6.56
2024-04-18T23:50:58.339Z,6.55
2024-04-18T23:56:02.541Z,6.56
